sensor_id;sensor_type;location;lat;lon;timestamp;temperature;humidity
29713;DHT22;16623;53.632;10.016;2023-09-12T00:00:54;20.90;99.90
29713;DHT22;16623;53.632;10.016;2023-09-12T00:03:21;21.00;99.90
29713;DHT22;16623;53.632;10.016;2023-09-12T00:05:53;21.00;99.90
29713;DHT22;16623;53.632;10.016;2023-09-12T00:08:19;20.90;99.90
29713;DHT22;16623;53.632;10.016;2023-09-12T00:10:45;21.00;99.90
29713;DHT22;16623;53.632;10.016;2023-09-12T00:13:11;20.90;99.90
29713;DHT22;16623;53.632;10.016;2023-09-12T00:15:36;20.90;99.90
29713;DHT22;16623;53.632;10.016;2023-09-12T00:18:02;20.90;99.90
29713;DHT22;16623;53.632;10.016;2023-09-12T00:20:28;20.90;99.90
29713;DHT22;16623;53.632;10.016;2023-09-12T00:22:54;20.90;99.90
29713;DHT22;16623;53.632;10.016;2023-09-12T00:25:20;20.90;99.90
29713;DHT22;16623;53.632;10.016;2023-09-12T00:27:46;20.90;99.90
29713;DHT22;16623;53.632;10.016;2023-09-12T00:30:13;20.90;99.90
29713;DHT22;16623;53.632;10.016;2023-09-12T00:32:39;20.90;99.90
29713;DHT22;16623;53.632;10.016;2023-09-12T00:35:05;20.90;99.90
29713;DHT22;16623;53.632;10.016;2023-09-12T00:37:31;20.90;99.90
29713;DHT22;16623;53.632;10.016;2023-09-12T00:39:56;20.80;99.90
29713;DHT22;16623;53.632;10.016;2023-09-12T00:42:25;20.80;99.90
29713;DHT22;16623;53.632;10.016;2023-09-12T00:44:51;20.70;99.90
29713;DHT22;16623;53.632;10.016;2023-09-12T00:47:16;20.70;99.90
29713;DHT22;16623;53.632;10.016;2023-09-12T00:49:43;20.70;99.90
29713;DHT22;16623;53.632;10.016;2023-09-12T00:52:10;20.70;99.90
29713;DHT22;16623;53.632;10.016;2023-09-12T00:54:36;20.70;99.90
29713;DHT22;16623;53.632;10.016;2023-09-12T00:57:02;20.60;99.90
29713;DHT22;16623;53.632;10.016;2023-09-12T00:59:27;20.60;99.90
29713;DHT22;16623;53.632;10.016;2023-09-12T01:01:53;20.60;99.90
29713;DHT22;16623;53.632;10.016;2023-09-12T01:04:19;20.60;99.90
29713;DHT22;16623;53.632;10.016;2023-09-12T01:06:48;20.60;99.90
29713;DHT22;16623;53.632;10.016;2023-09-12T01:09:14;20.60;99.90
29713;DHT22;16623;53.632;10.016;2023-09-12T01:11:40;20.60;99.90
29713;DHT22;16623;53.632;10.016;2023-09-12T01:14:06;20.60;99.90
29713;DHT22;16623;53.632;10.016;2023-09-12T01:16:31;20.50;99.90
29713;DHT22;16623;53.632;10.016;2023-09-12T01:18:57;20.50;99.90
29713;DHT22;16623;53.632;10.016;2023-09-12T01:29:53;20.40;99.90
29713;DHT22;16623;53.632;10.016;2023-09-12T01:32:20;20.30;99.90
29713;DHT22;16623;53.632;10.016;2023-09-12T01:34:45;20.30;99.90
29713;DHT22;16623;53.632;10.016;2023-09-12T01:37:17;20.30;99.90
29713;DHT22;16623;53.632;10.016;2023-09-12T01:39:43;20.20;99.90
29713;DHT22;16623;53.632;10.016;2023-09-12T01:42:14;20.20;99.90
29713;DHT22;16623;53.632;10.016;2023-09-12T01:44:43;20.10;99.90
29713;DHT22;16623;53.632;10.016;2023-09-12T01:47:10;20.10;99.90
29713;DHT22;16623;53.632;10.016;2023-09-12T01:49:42;20.20;99.90
29713;DHT22;16623;53.632;10.016;2023-09-12T01:52:09;20.20;99.90
29713;DHT22;16623;53.632;10.016;2023-09-12T01:54:36;20.20;99.90
29713;DHT22;16623;53.632;10.016;2023-09-12T01:57:02;20.00;99.90
29713;DHT22;16623;53.632;10.016;2023-09-12T01:59:29;20.00;99.90
29713;DHT22;16623;53.632;10.016;2023-09-12T02:01:55;20.00;99.90
29713;DHT22;16623;53.632;10.016;2023-09-12T02:04:20;20.10;99.90
29713;DHT22;16623;53.632;10.016;2023-09-12T02:06:46;20.10;99.90
29713;DHT22;16623;53.632;10.016;2023-09-12T02:09:11;20.20;99.90
29713;DHT22;16623;53.632;10.016;2023-09-12T02:11:37;20.20;99.90
29713;DHT22;16623;53.632;10.016;2023-09-12T02:14:03;20.30;99.90
29713;DHT22;16623;53.632;10.016;2023-09-12T02:16:30;20.20;99.90
29713;DHT22;16623;53.632;10.016;2023-09-12T02:18:56;20.20;99.90
29713;DHT22;16623;53.632;10.016;2023-09-12T02:21:21;20.20;99.90
29713;DHT22;16623;53.632;10.016;2023-09-12T02:23:47;20.30;99.90
29713;DHT22;16623;53.632;10.016;2023-09-12T02:26:12;20.20;99.90
29713;DHT22;16623;53.632;10.016;2023-09-12T02:28:38;20.20;99.90
29713;DHT22;16623;53.632;10.016;2023-09-12T02:31:03;20.20;99.90
29713;DHT22;16623;53.632;10.016;2023-09-12T02:33:34;20.20;99.90
29713;DHT22;16623;53.632;10.016;2023-09-12T02:36:00;20.20;99.90
29713;DHT22;16623;53.632;10.016;2023-09-12T02:38:25;20.20;99.90
29713;DHT22;16623;53.632;10.016;2023-09-12T02:40:51;20.20;99.90
29713;DHT22;16623;53.632;10.016;2023-09-12T02:43:16;20.20;99.90
29713;DHT22;16623;53.632;10.016;2023-09-12T02:45:42;20.10;99.90
29713;DHT22;16623;53.632;10.016;2023-09-12T02:48:08;20.20;99.90
29713;DHT22;16623;53.632;10.016;2023-09-12T02:50:34;20.10;99.90
29713;DHT22;16623;53.632;10.016;2023-09-12T02:52:59;20.10;99.90
29713;DHT22;16623;53.632;10.016;2023-09-12T02:55:29;20.10;99.90
29713;DHT22;16623;53.632;10.016;2023-09-12T02:57:54;20.20;99.90
29713;DHT22;16623;53.632;10.016;2023-09-12T03:00:20;20.10;99.90
29713;DHT22;16623;53.632;10.016;2023-09-12T03:02:45;20.10;99.90
29713;DHT22;16623;53.632;10.016;2023-09-12T03:05:11;20.10;99.90
29713;DHT22;16623;53.632;10.016;2023-09-12T03:07:36;20.20;99.90
29713;DHT22;16623;53.632;10.016;2023-09-12T03:10:02;20.20;99.90
29713;DHT22;16623;53.632;10.016;2023-09-12T03:12:28;20.10;99.90
29713;DHT22;16623;53.632;10.016;2023-09-12T03:14:54;20.20;99.90
29713;DHT22;16623;53.632;10.016;2023-09-12T03:17:20;20.20;99.90
29713;DHT22;16623;53.632;10.016;2023-09-12T03:19:46;20.20;99.90
29713;DHT22;16623;53.632;10.016;2023-09-12T03:22:12;20.20;99.90
29713;DHT22;16623;53.632;10.016;2023-09-12T03:24:37;20.20;99.90
29713;DHT22;16623;53.632;10.016;2023-09-12T03:27:03;20.20;99.90
29713;DHT22;16623;53.632;10.016;2023-09-12T03:29:28;20.20;99.90
29713;DHT22;16623;53.632;10.016;2023-09-12T03:31:54;20.10;99.90
29713;DHT22;16623;53.632;10.016;2023-09-12T03:34:20;20.10;99.90
29713;DHT22;16623;53.632;10.016;2023-09-12T03:36:45;20.10;99.90
29713;DHT22;16623;53.632;10.016;2023-09-12T03:39:11;20.20;99.90
29713;DHT22;16623;53.632;10.016;2023-09-12T03:41:41;20.10;99.90
29713;DHT22;16623;53.632;10.016;2023-09-12T03:44:07;20.10;99.90
29713;DHT22;16623;53.632;10.016;2023-09-12T03:46:33;20.00;99.90
29713;DHT22;16623;53.632;10.016;2023-09-12T03:48:58;20.00;99.90
29713;DHT22;16623;53.632;10.016;2023-09-12T03:51:24;20.10;99.90
29713;DHT22;16623;53.632;10.016;2023-09-12T03:53:49;20.00;99.90
29713;DHT22;16623;53.632;10.016;2023-09-12T03:56:16;20.10;99.90
29713;DHT22;16623;53.632;10.016;2023-09-12T03:58:42;20.00;99.90
29713;DHT22;16623;53.632;10.016;2023-09-12T04:01:07;20.10;99.90
29713;DHT22;16623;53.632;10.016;2023-09-12T04:03:33;20.00;99.90
29713;DHT22;16623;53.632;10.016;2023-09-12T04:05:58;20.00;99.90
29713;DHT22;16623;53.632;10.016;2023-09-12T04:08:24;20.00;99.90
29713;DHT22;16623;53.632;10.016;2023-09-12T04:10:50;20.10;99.90
29713;DHT22;16623;53.632;10.016;2023-09-12T04:13:15;20.10;99.90
29713;DHT22;16623;53.632;10.016;2023-09-12T04:18:10;20.00;99.90
29713;DHT22;16623;53.632;10.016;2023-09-12T04:20:35;20.00;99.90
29713;DHT22;16623;53.632;10.016;2023-09-12T04:25:34;20.00;99.90
29713;DHT22;16623;53.632;10.016;2023-09-12T04:27:59;19.90;99.90
29713;DHT22;16623;53.632;10.016;2023-09-12T04:30:25;19.90;99.90
29713;DHT22;16623;53.632;10.016;2023-09-12T04:32:51;19.90;99.90
29713;DHT22;16623;53.632;10.016;2023-09-12T04:35:16;20.00;99.90
29713;DHT22;16623;53.632;10.016;2023-09-12T04:37:44;20.00;99.90
29713;DHT22;16623;53.632;10.016;2023-09-12T04:40:11;19.90;99.90
29713;DHT22;16623;53.632;10.016;2023-09-12T04:42:36;20.00;99.90
29713;DHT22;16623;53.632;10.016;2023-09-12T04:45:02;20.00;99.90
29713;DHT22;16623;53.632;10.016;2023-09-12T04:47:28;19.90;99.90
29713;DHT22;16623;53.632;10.016;2023-09-12T04:49:53;19.90;99.90
29713;DHT22;16623;53.632;10.016;2023-09-12T04:52:19;19.90;99.90
29713;DHT22;16623;53.632;10.016;2023-09-12T04:54:44;19.90;99.90
29713;DHT22;16623;53.632;10.016;2023-09-12T04:57:10;19.90;99.90
29713;DHT22;16623;53.632;10.016;2023-09-12T04:59:35;20.00;99.90
29713;DHT22;16623;53.632;10.016;2023-09-12T05:02:01;19.90;99.90
29713;DHT22;16623;53.632;10.016;2023-09-12T05:06:52;19.90;99.90
29713;DHT22;16623;53.632;10.016;2023-09-12T05:09:18;19.90;99.90
29713;DHT22;16623;53.632;10.016;2023-09-12T05:11:44;19.80;99.90
29713;DHT22;16623;53.632;10.016;2023-09-12T05:14:09;19.80;99.90
29713;DHT22;16623;53.632;10.016;2023-09-12T05:16:35;19.80;99.90
29713;DHT22;16623;53.632;10.016;2023-09-12T05:19:00;19.80;99.90
29713;DHT22;16623;53.632;10.016;2023-09-12T05:21:26;19.80;99.90
29713;DHT22;16623;53.632;10.016;2023-09-12T05:23:51;19.80;99.90
29713;DHT22;16623;53.632;10.016;2023-09-12T05:26:17;19.90;99.90
29713;DHT22;16623;53.632;10.016;2023-09-12T05:28:43;19.80;99.90
29713;DHT22;16623;53.632;10.016;2023-09-12T05:31:08;19.90;99.90
29713;DHT22;16623;53.632;10.016;2023-09-12T05:33:34;19.80;99.90
29713;DHT22;16623;53.632;10.016;2023-09-12T05:36:00;19.80;99.90
29713;DHT22;16623;53.632;10.016;2023-09-12T05:38:26;19.80;99.90
29713;DHT22;16623;53.632;10.016;2023-09-12T05:40:51;19.80;99.90
29713;DHT22;16623;53.632;10.016;2023-09-12T05:43:17;19.70;99.90
29713;DHT22;16623;53.632;10.016;2023-09-12T05:45:43;19.80;99.90
29713;DHT22;16623;53.632;10.016;2023-09-12T05:48:09;19.80;99.90
29713;DHT22;16623;53.632;10.016;2023-09-12T05:50:36;19.80;99.90
29713;DHT22;16623;53.632;10.016;2023-09-12T05:53:02;19.80;99.90
29713;DHT22;16623;53.632;10.016;2023-09-12T05:55:28;19.80;99.90
29713;DHT22;16623;53.632;10.016;2023-09-12T05:57:54;19.70;99.90
29713;DHT22;16623;53.632;10.016;2023-09-12T06:00:20;19.70;99.90
29713;DHT22;16623;53.632;10.016;2023-09-12T06:05:15;19.80;99.90
29713;DHT22;16623;53.632;10.016;2023-09-12T06:07:41;19.60;99.90
29713;DHT22;16623;53.632;10.016;2023-09-12T06:10:08;19.60;99.90
29713;DHT22;16623;53.632;10.016;2023-09-12T06:12:34;19.70;99.90
29713;DHT22;16623;53.632;10.016;2023-09-12T06:15:01;19.70;99.90
29713;DHT22;16623;53.632;10.016;2023-09-12T06:17:27;19.70;99.90
29713;DHT22;16623;53.632;10.016;2023-09-12T06:19:54;19.60;99.90
29713;DHT22;16623;53.632;10.016;2023-09-12T06:22:20;19.60;99.90
29713;DHT22;16623;53.632;10.016;2023-09-12T06:24:50;19.70;99.90
29713;DHT22;16623;53.632;10.016;2023-09-12T06:27:16;19.70;99.90
29713;DHT22;16623;53.632;10.016;2023-09-12T06:29:47;19.80;99.90
29713;DHT22;16623;53.632;10.016;2023-09-12T06:32:17;19.90;99.90
29713;DHT22;16623;53.632;10.016;2023-09-12T06:34:43;19.80;99.90
29713;DHT22;16623;53.632;10.016;2023-09-12T06:37:10;20.00;99.90
29713;DHT22;16623;53.632;10.016;2023-09-12T06:39:39;20.00;99.90
29713;DHT22;16623;53.632;10.016;2023-09-12T06:42:04;20.00;99.90
29713;DHT22;16623;53.632;10.016;2023-09-12T06:44:30;20.00;99.90
29713;DHT22;16623;53.632;10.016;2023-09-12T06:46:55;20.10;99.90
29713;DHT22;16623;53.632;10.016;2023-09-12T06:49:21;20.10;99.90
29713;DHT22;16623;53.632;10.016;2023-09-12T06:51:47;20.10;99.90
29713;DHT22;16623;53.632;10.016;2023-09-12T06:54:12;20.10;99.90
29713;DHT22;16623;53.632;10.016;2023-09-12T06:56:38;20.10;99.90
29713;DHT22;16623;53.632;10.016;2023-09-12T06:59:10;20.10;99.90
29713;DHT22;16623;53.632;10.016;2023-09-12T07:01:36;20.10;99.90
29713;DHT22;16623;53.632;10.016;2023-09-12T07:04:02;20.10;99.90
29713;DHT22;16623;53.632;10.016;2023-09-12T07:06:28;20.10;99.90
29713;DHT22;16623;53.632;10.016;2023-09-12T07:08:57;20.10;99.90
29713;DHT22;16623;53.632;10.016;2023-09-12T07:11:22;20.10;99.90
29713;DHT22;16623;53.632;10.016;2023-09-12T07:13:49;20.10;99.90
29713;DHT22;16623;53.632;10.016;2023-09-12T07:16:15;20.20;99.90
29713;DHT22;16623;53.632;10.016;2023-09-12T07:18:40;20.20;99.90
29713;DHT22;16623;53.632;10.016;2023-09-12T07:21:07;20.20;99.90
29713;DHT22;16623;53.632;10.016;2023-09-12T07:23:33;20.30;99.90
29713;DHT22;16623;53.632;10.016;2023-09-12T07:25:58;20.20;99.90
29713;DHT22;16623;53.632;10.016;2023-09-12T07:28:25;20.40;99.90
29713;DHT22;16623;53.632;10.016;2023-09-12T07:30:51;20.40;99.90
29713;DHT22;16623;53.632;10.016;2023-09-12T07:33:16;20.40;99.90
29713;DHT22;16623;53.632;10.016;2023-09-12T07:35:42;20.40;99.90
29713;DHT22;16623;53.632;10.016;2023-09-12T07:38:07;20.40;99.90
29713;DHT22;16623;53.632;10.016;2023-09-12T07:40:33;20.40;99.90
29713;DHT22;16623;53.632;10.016;2023-09-12T07:42:58;20.40;99.90
29713;DHT22;16623;53.632;10.016;2023-09-12T07:45:24;20.40;99.90
29713;DHT22;16623;53.632;10.016;2023-09-12T07:47:50;20.40;99.90
29713;DHT22;16623;53.632;10.016;2023-09-12T07:50:16;20.40;99.90
29713;DHT22;16623;53.632;10.016;2023-09-12T07:52:41;20.40;99.90
29713;DHT22;16623;53.632;10.016;2023-09-12T07:55:07;20.50;99.90
29713;DHT22;16623;53.632;10.016;2023-09-12T07:57:33;20.40;99.90
29713;DHT22;16623;53.632;10.016;2023-09-12T08:00:03;20.50;99.90
29713;DHT22;16623;53.632;10.016;2023-09-12T08:02:30;20.40;99.90
29713;DHT22;16623;53.632;10.016;2023-09-12T08:04:55;20.50;99.90
29713;DHT22;16623;53.632;10.016;2023-09-12T08:07:22;20.50;99.90
29713;DHT22;16623;53.632;10.016;2023-09-12T08:09:52;20.50;99.90
29713;DHT22;16623;53.632;10.016;2023-09-12T08:12:19;21.30;99.90
29713;DHT22;16623;53.632;10.016;2023-09-12T08:14:45;20.60;99.90
29713;DHT22;16623;53.632;10.016;2023-09-12T08:17:12;20.50;99.90
29713;DHT22;16623;53.632;10.016;2023-09-12T08:19:38;20.60;99.90
29713;DHT22;16623;53.632;10.016;2023-09-12T08:22:03;20.60;99.90
29713;DHT22;16623;53.632;10.016;2023-09-12T08:24:29;20.60;99.90
29713;DHT22;16623;53.632;10.016;2023-09-12T08:26:54;20.70;99.90
29713;DHT22;16623;53.632;10.016;2023-09-12T08:29:20;20.80;99.90
29713;DHT22;16623;53.632;10.016;2023-09-12T08:31:46;20.90;99.90
29713;DHT22;16623;53.632;10.016;2023-09-12T08:34:13;21.00;99.90
29713;DHT22;16623;53.632;10.016;2023-09-12T08:36:39;21.00;99.90
29713;DHT22;16623;53.632;10.016;2023-09-12T08:39:04;21.10;99.90
29713;DHT22;16623;53.632;10.016;2023-09-12T08:41:30;21.20;99.90
29713;DHT22;16623;53.632;10.016;2023-09-12T08:43:56;21.10;99.90
29713;DHT22;16623;53.632;10.016;2023-09-12T08:46:22;21.10;99.90
29713;DHT22;16623;53.632;10.016;2023-09-12T08:48:49;21.20;99.90
29713;DHT22;16623;53.632;10.016;2023-09-12T08:51:16;21.30;99.90
29713;DHT22;16623;53.632;10.016;2023-09-12T08:53:41;21.40;99.90
29713;DHT22;16623;53.632;10.016;2023-09-12T08:56:07;21.50;99.90
29713;DHT22;16623;53.632;10.016;2023-09-12T08:58:35;21.50;99.90
29713;DHT22;16623;53.632;10.016;2023-09-12T09:01:01;21.60;99.90
29713;DHT22;16623;53.632;10.016;2023-09-12T09:03:28;21.70;99.90
29713;DHT22;16623;53.632;10.016;2023-09-12T09:05:55;21.70;99.90
29713;DHT22;16623;53.632;10.016;2023-09-12T09:08:23;21.70;99.90
29713;DHT22;16623;53.632;10.016;2023-09-12T09:10:58;21.70;99.90
29713;DHT22;16623;53.632;10.016;2023-09-12T09:13:25;21.80;99.90
29713;DHT22;16623;53.632;10.016;2023-09-12T09:16:15;21.80;99.90
29713;DHT22;16623;53.632;10.016;2023-09-12T09:21:25;21.80;99.90
29713;DHT22;16623;53.632;10.016;2023-09-12T09:23:53;21.70;99.90
29713;DHT22;16623;53.632;10.016;2023-09-12T09:26:19;21.80;99.90
29713;DHT22;16623;53.632;10.016;2023-09-12T09:28:45;21.70;99.90
29713;DHT22;16623;53.632;10.016;2023-09-12T09:31:11;21.70;99.90
29713;DHT22;16623;53.632;10.016;2023-09-12T09:33:39;21.70;99.90
29713;DHT22;16623;53.632;10.016;2023-09-12T09:36:07;21.80;99.90
29713;DHT22;16623;53.632;10.016;2023-09-12T09:38:34;21.80;99.90
29713;DHT22;16623;53.632;10.016;2023-09-12T09:41:03;21.80;99.90
29713;DHT22;16623;53.632;10.016;2023-09-12T09:43:31;21.70;99.90
29713;DHT22;16623;53.632;10.016;2023-09-12T09:45:58;21.80;99.90
29713;DHT22;16623;53.632;10.016;2023-09-12T09:48:27;21.80;99.90
29713;DHT22;16623;53.632;10.016;2023-09-12T09:50:53;21.90;99.90
29713;DHT22;16623;53.632;10.016;2023-09-12T09:53:29;21.90;99.90
29713;DHT22;16623;53.632;10.016;2023-09-12T09:56:10;22.00;99.90
29713;DHT22;16623;53.632;10.016;2023-09-12T09:58:58;22.00;99.90
29713;DHT22;16623;53.632;10.016;2023-09-12T10:01:28;22.00;99.90
29713;DHT22;16623;53.632;10.016;2023-09-12T10:03:58;22.00;99.90
29713;DHT22;16623;53.632;10.016;2023-09-12T10:06:26;22.00;99.90
29713;DHT22;16623;53.632;10.016;2023-09-12T10:08:53;21.90;99.90
29713;DHT22;16623;53.632;10.016;2023-09-12T10:11:23;22.00;99.90
29713;DHT22;16623;53.632;10.016;2023-09-12T10:13:56;21.90;99.90
29713;DHT22;16623;53.632;10.016;2023-09-12T10:16:30;22.00;99.90
29713;DHT22;16623;53.632;10.016;2023-09-12T10:21:36;21.90;99.90
29713;DHT22;16623;53.632;10.016;2023-09-12T10:24:03;21.90;99.90
29713;DHT22;16623;53.632;10.016;2023-09-12T10:26:31;22.00;99.90
29713;DHT22;16623;53.632;10.016;2023-09-12T10:28:57;21.90;99.90
29713;DHT22;16623;53.632;10.016;2023-09-12T10:31:26;22.00;99.90
29713;DHT22;16623;53.632;10.016;2023-09-12T10:33:53;21.90;99.90
29713;DHT22;16623;53.632;10.016;2023-09-12T10:36:20;21.90;99.90
29713;DHT22;16623;53.632;10.016;2023-09-12T10:38:48;21.90;99.90
29713;DHT22;16623;53.632;10.016;2023-09-12T10:41:17;21.80;99.90
29713;DHT22;16623;53.632;10.016;2023-09-12T10:43:45;21.80;99.90
29713;DHT22;16623;53.632;10.016;2023-09-12T10:46:15;21.80;99.90
29713;DHT22;16623;53.632;10.016;2023-09-12T10:48:41;21.80;99.90
29713;DHT22;16623;53.632;10.016;2023-09-12T10:51:07;21.80;99.90
29713;DHT22;16623;53.632;10.016;2023-09-12T10:53:33;21.70;99.90
29713;DHT22;16623;53.632;10.016;2023-09-12T10:56:18;21.70;99.90
29713;DHT22;16623;53.632;10.016;2023-09-12T11:01:36;21.70;99.90
29713;DHT22;16623;53.632;10.016;2023-09-12T11:06:49;21.70;99.90
29713;DHT22;16623;53.632;10.016;2023-09-12T11:09:21;21.70;99.90
29713;DHT22;16623;53.632;10.016;2023-09-12T11:11:48;21.70;99.90
29713;DHT22;16623;53.632;10.016;2023-09-12T11:14:16;21.70;99.90
29713;DHT22;16623;53.632;10.016;2023-09-12T11:19:46;21.60;99.90
29713;DHT22;16623;53.632;10.016;2023-09-12T11:22:45;21.60;99.90
29713;DHT22;16623;53.632;10.016;2023-09-12T11:25:24;21.60;99.90
29713;DHT22;16623;53.632;10.016;2023-09-12T11:30:20;21.60;99.90
29713;DHT22;16623;53.632;10.016;2023-09-12T11:32:49;21.60;99.90
29713;DHT22;16623;53.632;10.016;2023-09-12T11:35:16;21.60;99.90
29713;DHT22;16623;53.632;10.016;2023-09-12T11:37:49;21.70;99.90
29713;DHT22;16623;53.632;10.016;2023-09-12T11:42:41;21.70;99.90
29713;DHT22;16623;53.632;10.016;2023-09-12T11:45:10;21.70;99.90
29713;DHT22;16623;53.632;10.016;2023-09-12T11:47:43;21.70;99.90
29713;DHT22;16623;53.632;10.016;2023-09-12T11:50:29;21.70;99.90
29713;DHT22;16623;53.632;10.016;2023-09-12T11:53:05;21.70;99.90
29713;DHT22;16623;53.632;10.016;2023-09-12T11:55:33;21.70;99.90
29713;DHT22;16623;53.632;10.016;2023-09-12T11:58:00;21.70;99.90
29713;DHT22;16623;53.632;10.016;2023-09-12T12:00:25;21.70;99.90
29713;DHT22;16623;53.632;10.016;2023-09-12T12:02:53;21.70;99.90
29713;DHT22;16623;53.632;10.016;2023-09-12T12:05:19;21.70;99.90
29713;DHT22;16623;53.632;10.016;2023-09-12T12:07:44;21.70;99.90
29713;DHT22;16623;53.632;10.016;2023-09-12T12:10:13;21.60;99.90
29713;DHT22;16623;53.632;10.016;2023-09-12T12:12:39;21.60;99.90
29713;DHT22;16623;53.632;10.016;2023-09-12T12:15:09;21.60;99.90
29713;DHT22;16623;53.632;10.016;2023-09-12T12:17:35;21.70;99.90
29713;DHT22;16623;53.632;10.016;2023-09-12T12:20:02;21.70;99.90
29713;DHT22;16623;53.632;10.016;2023-09-12T12:22:32;21.60;99.90
29713;DHT22;16623;53.632;10.016;2023-09-12T12:25:09;21.70;99.90
29713;DHT22;16623;53.632;10.016;2023-09-12T12:27:38;21.70;99.90
29713;DHT22;16623;53.632;10.016;2023-09-12T12:30:08;21.70;99.90
29713;DHT22;16623;53.632;10.016;2023-09-12T12:32:45;21.70;99.90
29713;DHT22;16623;53.632;10.016;2023-09-12T12:35:22;21.70;99.90
29713;DHT22;16623;53.632;10.016;2023-09-12T12:37:49;21.80;99.90
29713;DHT22;16623;53.632;10.016;2023-09-12T12:40:15;21.80;99.90
29713;DHT22;16623;53.632;10.016;2023-09-12T12:42:43;21.80;99.90
29713;DHT22;16623;53.632;10.016;2023-09-12T12:45:21;21.80;99.90
29713;DHT22;16623;53.632;10.016;2023-09-12T12:47:51;21.80;99.90
29713;DHT22;16623;53.632;10.016;2023-09-12T12:50:17;21.80;99.90
29713;DHT22;16623;53.632;10.016;2023-09-12T12:52:47;21.80;99.90
29713;DHT22;16623;53.632;10.016;2023-09-12T12:55:14;21.90;99.90
29713;DHT22;16623;53.632;10.016;2023-09-12T12:57:42;21.90;99.90
29713;DHT22;16623;53.632;10.016;2023-09-12T13:00:15;21.90;99.90
29713;DHT22;16623;53.632;10.016;2023-09-12T13:02:42;21.90;99.90
29713;DHT22;16623;53.632;10.016;2023-09-12T13:05:24;21.90;99.90
29713;DHT22;16623;53.632;10.016;2023-09-12T13:07:49;21.80;99.90
29713;DHT22;16623;53.632;10.016;2023-09-12T13:10:16;21.80;99.90
29713;DHT22;16623;53.632;10.016;2023-09-12T13:12:42;21.80;99.90
29713;DHT22;16623;53.632;10.016;2023-09-12T13:15:11;21.80;99.90
29713;DHT22;16623;53.632;10.016;2023-09-12T13:17:37;21.90;99.90
29713;DHT22;16623;53.632;10.016;2023-09-12T13:20:03;22.00;99.90
29713;DHT22;16623;53.632;10.016;2023-09-12T13:22:28;22.00;99.90
29713;DHT22;16623;53.632;10.016;2023-09-12T13:24:54;22.10;99.90
29713;DHT22;16623;53.632;10.016;2023-09-12T13:27:19;22.20;99.90
29713;DHT22;16623;53.632;10.016;2023-09-12T13:29:45;22.30;99.90
29713;DHT22;16623;53.632;10.016;2023-09-12T13:32:10;22.30;99.90
29713;DHT22;16623;53.632;10.016;2023-09-12T13:34:38;22.30;99.90
29713;DHT22;16623;53.632;10.016;2023-09-12T13:37:03;22.30;99.90
29713;DHT22;16623;53.632;10.016;2023-09-12T13:39:29;22.30;99.90
29713;DHT22;16623;53.632;10.016;2023-09-12T13:41:54;22.30;99.90
29713;DHT22;16623;53.632;10.016;2023-09-12T13:44:23;22.20;99.90
29713;DHT22;16623;53.632;10.016;2023-09-12T13:46:48;22.20;99.90
29713;DHT22;16623;53.632;10.016;2023-09-12T13:49:14;22.20;99.90
29713;DHT22;16623;53.632;10.016;2023-09-12T13:51:39;22.20;99.90
29713;DHT22;16623;53.632;10.016;2023-09-12T13:54:05;22.30;99.90
29713;DHT22;16623;53.632;10.016;2023-09-12T13:56:32;22.40;99.90
29713;DHT22;16623;53.632;10.016;2023-09-12T13:58:57;22.50;99.90
29713;DHT22;16623;53.632;10.016;2023-09-12T14:01:23;22.50;99.90
29713;DHT22;16623;53.632;10.016;2023-09-12T14:03:49;22.40;99.90
29713;DHT22;16623;53.632;10.016;2023-09-12T14:06:15;22.40;99.90
29713;DHT22;16623;53.632;10.016;2023-09-12T14:08:41;22.30;99.90
29713;DHT22;16623;53.632;10.016;2023-09-12T14:11:07;22.30;99.90
29713;DHT22;16623;53.632;10.016;2023-09-12T14:13:32;22.30;99.90
29713;DHT22;16623;53.632;10.016;2023-09-12T14:15:58;22.20;99.90
29713;DHT22;16623;53.632;10.016;2023-09-12T14:18:24;22.20;99.90
29713;DHT22;16623;53.632;10.016;2023-09-12T14:20:50;22.20;99.90
29713;DHT22;16623;53.632;10.016;2023-09-12T14:23:16;22.20;99.90
29713;DHT22;16623;53.632;10.016;2023-09-12T14:25:41;22.20;99.90
29713;DHT22;16623;53.632;10.016;2023-09-12T14:28:07;22.30;99.90
29713;DHT22;16623;53.632;10.016;2023-09-12T14:30:33;22.20;99.90
29713;DHT22;16623;53.632;10.016;2023-09-12T14:33:02;22.30;99.90
29713;DHT22;16623;53.632;10.016;2023-09-12T14:35:28;22.30;99.90
29713;DHT22;16623;53.632;10.016;2023-09-12T14:37:54;22.40;99.90
29713;DHT22;16623;53.632;10.016;2023-09-12T14:40:19;22.50;99.90
29713;DHT22;16623;53.632;10.016;2023-09-12T14:42:45;22.50;99.90
29713;DHT22;16623;53.632;10.016;2023-09-12T14:45:13;22.40;99.90
29713;DHT22;16623;53.632;10.016;2023-09-12T14:47:39;22.50;99.90
29713;DHT22;16623;53.632;10.016;2023-09-12T14:50:04;22.60;99.90
29713;DHT22;16623;53.632;10.016;2023-09-12T14:52:30;22.70;99.90
29713;DHT22;16623;53.632;10.016;2023-09-12T14:54:56;22.70;99.90
29713;DHT22;16623;53.632;10.016;2023-09-12T14:57:23;22.70;99.90
29713;DHT22;16623;53.632;10.016;2023-09-12T14:59:50;22.70;99.90
29713;DHT22;16623;53.632;10.016;2023-09-12T15:02:15;22.70;99.90
29713;DHT22;16623;53.632;10.016;2023-09-12T15:04:41;22.70;99.90
29713;DHT22;16623;53.632;10.016;2023-09-12T15:07:06;22.60;99.90
29713;DHT22;16623;53.632;10.016;2023-09-12T15:09:32;22.60;99.90
29713;DHT22;16623;53.632;10.016;2023-09-12T15:11:58;22.60;99.90
29713;DHT22;16623;53.632;10.016;2023-09-12T15:14:23;22.70;99.90
29713;DHT22;16623;53.632;10.016;2023-09-12T15:16:49;22.70;99.90
29713;DHT22;16623;53.632;10.016;2023-09-12T15:19:14;22.80;99.90
29713;DHT22;16623;53.632;10.016;2023-09-12T15:21:40;22.80;99.90
29713;DHT22;16623;53.632;10.016;2023-09-12T15:24:06;22.90;99.90
29713;DHT22;16623;53.632;10.016;2023-09-12T15:26:31;22.90;99.90
29713;DHT22;16623;53.632;10.016;2023-09-12T15:28:57;22.80;99.90
29713;DHT22;16623;53.632;10.016;2023-09-12T15:31:24;22.70;99.90
29713;DHT22;16623;53.632;10.016;2023-09-12T15:33:49;22.80;99.90
29713;DHT22;16623;53.632;10.016;2023-09-12T15:36:15;22.70;99.90
29713;DHT22;16623;53.632;10.016;2023-09-12T15:38:41;22.70;99.90
29713;DHT22;16623;53.632;10.016;2023-09-12T15:41:06;22.60;99.90
29713;DHT22;16623;53.632;10.016;2023-09-12T15:43:33;22.60;99.90
29713;DHT22;16623;53.632;10.016;2023-09-12T15:45:59;22.60;99.90
29713;DHT22;16623;53.632;10.016;2023-09-12T15:48:28;22.50;99.90
29713;DHT22;16623;53.632;10.016;2023-09-12T15:50:54;22.50;99.90